sensor_id;sensor_type;location;lat;lon;timestamp;P1;durP1;ratioP1;P2;durP2;ratioP2
49444;SDS011;35323;43.080;-81.378;2022-10-31T00:01:57;3.10;;;2.20;;
49444;SDS011;35323;43.080;-81.378;2022-10-31T00:04:26;3.00;;;1.67;;
49444;SDS011;35323;43.080;-81.378;2022-10-31T00:06:53;2.28;;;1.50;;
49444;SDS011;35323;43.080;-81.378;2022-10-31T00:09:21;2.58;;;1.65;;
49444;SDS011;35323;43.080;-81.378;2022-10-31T00:11:49;4.18;;;2.10;;
49444;SDS011;35323;43.080;-81.378;2022-10-31T00:14:16;3.88;;;2.97;;
49444;SDS011;35323;43.080;-81.378;2022-10-31T00:16:44;2.95;;;1.73;;
49444;SDS011;35323;43.080;-81.378;2022-10-31T00:19:11;4.70;;;2.53;;
49444;SDS011;35323;43.080;-81.378;2022-10-31T00:21:38;3.00;;;2.47;;
49444;SDS011;35323;43.080;-81.378;2022-10-31T00:24:06;2.42;;;2.15;;
49444;SDS011;35323;43.080;-81.378;2022-10-31T00:26:33;4.03;;;2.33;;
49444;SDS011;35323;43.080;-81.378;2022-10-31T00:29:01;3.63;;;2.00;;
49444;SDS011;35323;43.080;-81.378;2022-10-31T00:31:29;3.83;;;2.00;;
49444;SDS011;35323;43.080;-81.378;2022-10-31T00:33:57;3.65;;;1.77;;
49444;SDS011;35323;43.080;-81.378;2022-10-31T00:36:24;2.42;;;2.10;;
49444;SDS011;35323;43.080;-81.378;2022-10-31T00:38:52;5.50;;;2.13;;
49444;SDS011;35323;43.080;-81.378;2022-10-31T00:41:19;3.78;;;2.45;;
49444;SDS011;35323;43.080;-81.378;2022-10-31T00:43:48;3.50;;;2.22;;
49444;SDS011;35323;43.080;-81.378;2022-10-31T00:46:15;3.03;;;2.08;;
49444;SDS011;35323;43.080;-81.378;2022-10-31T00:48:42;5.72;;;2.47;;
49444;SDS011;35323;43.080;-81.378;2022-10-31T00:51:10;6.35;;;2.40;;
49444;SDS011;35323;43.080;-81.378;2022-10-31T00:53:37;1.55;;;1.45;;
49444;SDS011;35323;43.080;-81.378;2022-10-31T00:56:05;5.95;;;3.53;;
49444;SDS011;35323;43.080;-81.378;2022-10-31T00:58:32;2.35;;;1.95;;
49444;SDS011;35323;43.080;-81.378;2022-10-31T01:01:00;1.98;;;1.77;;
49444;SDS011;35323;43.080;-81.378;2022-10-31T01:03:28;2.60;;;2.40;;
49444;SDS011;35323;43.080;-81.378;2022-10-31T01:08:24;4.85;;;2.38;;
49444;SDS011;35323;43.080;-81.378;2022-10-31T01:11:11;2.50;;;2.30;;
49444;SDS011;35323;43.080;-81.378;2022-10-31T01:13:39;2.63;;;2.33;;
49444;SDS011;35323;43.080;-81.378;2022-10-31T01:16:08;5.93;;;2.47;;
49444;SDS011;35323;43.080;-81.378;2022-10-31T01:18:36;4.10;;;2.63;;
49444;SDS011;35323;43.080;-81.378;2022-10-31T01:21:05;3.20;;;2.70;;
49444;SDS011;35323;43.080;-81.378;2022-10-31T01:23:33;2.17;;;1.80;;
49444;SDS011;35323;43.080;-81.378;2022-10-31T01:26:01;3.53;;;2.20;;
49444;SDS011;35323;43.080;-81.378;2022-10-31T01:28:29;4.25;;;3.85;;
49444;SDS011;35323;43.080;-81.378;2022-10-31T01:30:59;2.20;;;1.90;;
49444;SDS011;35323;43.080;-81.378;2022-10-31T01:33:29;4.75;;;2.30;;
49444;SDS011;35323;43.080;-81.378;2022-10-31T01:35:56;2.55;;;2.00;;
49444;SDS011;35323;43.080;-81.378;2022-10-31T01:38:24;3.65;;;2.40;;
49444;SDS011;35323;43.080;-81.378;2022-10-31T01:40:51;2.20;;;2.00;;
49444;SDS011;35323;43.080;-81.378;2022-10-31T01:43:19;3.03;;;2.65;;
49444;SDS011;35323;43.080;-81.378;2022-10-31T01:45:49;1.45;;;1.23;;
49444;SDS011;35323;43.080;-81.378;2022-10-31T01:48:19;3.08;;;2.22;;
49444;SDS011;35323;43.080;-81.378;2022-10-31T01:50:47;3.00;;;2.38;;
49444;SDS011;35323;43.080;-81.378;2022-10-31T01:53:15;7.03;;;2.70;;
49444;SDS011;35323;43.080;-81.378;2022-10-31T01:55:48;3.95;;;2.90;;
49444;SDS011;35323;43.080;-81.378;2022-10-31T01:58:18;3.05;;;2.75;;
49444;SDS011;35323;43.080;-81.378;2022-10-31T02:00:46;4.25;;;2.70;;
49444;SDS011;35323;43.080;-81.378;2022-10-31T02:03:16;3.10;;;2.75;;
49444;SDS011;35323;43.080;-81.378;2022-10-31T02:05:44;3.08;;;2.65;;
49444;SDS011;35323;43.080;-81.378;2022-10-31T02:10:39;3.40;;;2.97;;
49444;SDS011;35323;43.080;-81.378;2022-10-31T02:13:07;2.45;;;1.83;;
49444;SDS011;35323;43.080;-81.378;2022-10-31T02:15:36;4.28;;;2.75;;
49444;SDS011;35323;43.080;-81.378;2022-10-31T02:18:04;5.18;;;3.10;;
49444;SDS011;35323;43.080;-81.378;2022-10-31T02:20:32;3.00;;;2.70;;
49444;SDS011;35323;43.080;-81.378;2022-10-31T02:25:59;3.53;;;2.65;;
49444;SDS011;35323;43.080;-81.378;2022-10-31T02:28:24;5.78;;;2.65;;
49444;SDS011;35323;43.080;-81.378;2022-10-31T02:33:55;2.50;;;2.30;;
49444;SDS011;35323;43.080;-81.378;2022-10-31T02:36:21;3.60;;;3.25;;
49444;SDS011;35323;43.080;-81.378;2022-10-31T02:41:48;5.60;;;2.58;;
49444;SDS011;35323;43.080;-81.378;2022-10-31T02:47:11;4.70;;;1.88;;
49444;SDS011;35323;43.080;-81.378;2022-10-31T02:49:40;4.90;;;2.85;;
49444;SDS011;35323;43.080;-81.378;2022-10-31T02:52:16;4.60;;;3.08;;
49444;SDS011;35323;43.080;-81.378;2022-10-31T02:54:45;4.78;;;1.85;;
49444;SDS011;35323;43.080;-81.378;2022-10-31T02:57:13;2.38;;;2.03;;
49444;SDS011;35323;43.080;-81.378;2022-10-31T02:59:44;2.40;;;2.22;;
49444;SDS011;35323;43.080;-81.378;2022-10-31T03:02:29;3.40;;;2.40;;
49444;SDS011;35323;43.080;-81.378;2022-10-31T03:05:18;3.55;;;2.28;;
49444;SDS011;35323;43.080;-81.378;2022-10-31T03:10:34;3.92;;;2.72;;
49444;SDS011;35323;43.080;-81.378;2022-10-31T03:16:01;2.75;;;2.55;;
49444;SDS011;35323;43.080;-81.378;2022-10-31T03:18:37;5.90;;;2.15;;
49444;SDS011;35323;43.080;-81.378;2022-10-31T03:21:13;4.00;;;2.70;;
49444;SDS011;35323;43.080;-81.378;2022-10-31T03:23:42;3.80;;;2.85;;
49444;SDS011;35323;43.080;-81.378;2022-10-31T03:26:11;3.67;;;2.95;;
49444;SDS011;35323;43.080;-81.378;2022-10-31T03:28:44;3.10;;;2.80;;
49444;SDS011;35323;43.080;-81.378;2022-10-31T03:31:12;3.63;;;2.60;;
49444;SDS011;35323;43.080;-81.378;2022-10-31T03:33:41;5.45;;;3.30;;
49444;SDS011;35323;43.080;-81.378;2022-10-31T03:36:10;3.10;;;1.88;;
49444;SDS011;35323;43.080;-81.378;2022-10-31T03:38:38;3.83;;;2.28;;
49444;SDS011;35323;43.080;-81.378;2022-10-31T03:41:09;4.13;;;1.98;;
49444;SDS011;35323;43.080;-81.378;2022-10-31T03:43:38;3.92;;;2.17;;
49444;SDS011;35323;43.080;-81.378;2022-10-31T03:46:08;5.70;;;2.05;;
49444;SDS011;35323;43.080;-81.378;2022-10-31T03:48:37;2.58;;;2.38;;
49444;SDS011;35323;43.080;-81.378;2022-10-31T03:53:45;4.40;;;2.13;;
49444;SDS011;35323;43.080;-81.378;2022-10-31T03:56:32;4.35;;;2.22;;
49444;SDS011;35323;43.080;-81.378;2022-10-31T03:59:12;2.90;;;2.05;;
49444;SDS011;35323;43.080;-81.378;2022-10-31T04:01:43;3.15;;;2.88;;
49444;SDS011;35323;43.080;-81.378;2022-10-31T04:04:13;1.63;;;1.53;;
49444;SDS011;35323;43.080;-81.378;2022-10-31T04:06:41;6.00;;;2.40;;
49444;SDS011;35323;43.080;-81.378;2022-10-31T04:09:10;3.33;;;2.15;;
49444;SDS011;35323;43.080;-81.378;2022-10-31T04:11:40;6.00;;;2.63;;
49444;SDS011;35323;43.080;-81.378;2022-10-31T04:14:09;4.85;;;2.60;;
49444;SDS011;35323;43.080;-81.378;2022-10-31T04:16:41;3.15;;;1.88;;
49444;SDS011;35323;43.080;-81.378;2022-10-31T04:19:10;7.05;;;2.63;;
49444;SDS011;35323;43.080;-81.378;2022-10-31T04:21:38;5.50;;;2.78;;
49444;SDS011;35323;43.080;-81.378;2022-10-31T04:24:05;2.67;;;1.88;;
49444;SDS011;35323;43.080;-81.378;2022-10-31T04:26:33;11.02;;;3.88;;
49444;SDS011;35323;43.080;-81.378;2022-10-31T04:29:00;2.80;;;2.20;;
49444;SDS011;35323;43.080;-81.378;2022-10-31T04:31:28;2.75;;;2.30;;
49444;SDS011;35323;43.080;-81.378;2022-10-31T04:33:55;3.80;;;2.30;;
49444;SDS011;35323;43.080;-81.378;2022-10-31T04:36:23;5.15;;;2.92;;
49444;SDS011;35323;43.080;-81.378;2022-10-31T04:38:50;4.75;;;3.33;;
49444;SDS011;35323;43.080;-81.378;2022-10-31T04:41:18;5.22;;;2.97;;
49444;SDS011;35323;43.080;-81.378;2022-10-31T04:43:45;6.15;;;3.00;;
49444;SDS011;35323;43.080;-81.378;2022-10-31T04:46:12;5.28;;;3.15;;
49444;SDS011;35323;43.080;-81.378;2022-10-31T04:48:40;4.32;;;3.45;;
49444;SDS011;35323;43.080;-81.378;2022-10-31T04:51:08;6.95;;;3.08;;
49444;SDS011;35323;43.080;-81.378;2022-10-31T04:53:35;3.03;;;2.72;;
49444;SDS011;35323;43.080;-81.378;2022-10-31T04:56:02;4.30;;;3.30;;
49444;SDS011;35323;43.080;-81.378;2022-10-31T04:58:30;7.43;;;3.17;;
49444;SDS011;35323;43.080;-81.378;2022-10-31T05:00:58;6.28;;;2.72;;
49444;SDS011;35323;43.080;-81.378;2022-10-31T05:03:25;4.78;;;2.60;;
49444;SDS011;35323;43.080;-81.378;2022-10-31T05:05:53;3.33;;;3.03;;
49444;SDS011;35323;43.080;-81.378;2022-10-31T05:08:20;6.18;;;3.72;;
49444;SDS011;35323;43.080;-81.378;2022-10-31T05:10:48;6.30;;;4.32;;
49444;SDS011;35323;43.080;-81.378;2022-10-31T05:13:15;3.53;;;2.55;;
49444;SDS011;35323;43.080;-81.378;2022-10-31T05:15:43;8.07;;;3.47;;
49444;SDS011;35323;43.080;-81.378;2022-10-31T05:18:10;2.85;;;2.53;;
49444;SDS011;35323;43.080;-81.378;2022-10-31T05:20:37;3.88;;;2.65;;
49444;SDS011;35323;43.080;-81.378;2022-10-31T05:23:05;2.42;;;2.17;;
49444;SDS011;35323;43.080;-81.378;2022-10-31T05:25:33;2.95;;;2.33;;
49444;SDS011;35323;43.080;-81.378;2022-10-31T05:28:00;3.17;;;2.03;;
49444;SDS011;35323;43.080;-81.378;2022-10-31T05:30:29;4.05;;;2.70;;
49444;SDS011;35323;43.080;-81.378;2022-10-31T05:32:57;6.15;;;3.22;;
49444;SDS011;35323;43.080;-81.378;2022-10-31T05:35:26;5.85;;;2.75;;
49444;SDS011;35323;43.080;-81.378;2022-10-31T05:37:54;4.40;;;3.10;;
49444;SDS011;35323;43.080;-81.378;2022-10-31T05:40:21;3.42;;;3.13;;
49444;SDS011;35323;43.080;-81.378;2022-10-31T05:42:53;4.15;;;2.72;;
49444;SDS011;35323;43.080;-81.378;2022-10-31T05:45:21;3.03;;;2.50;;
49444;SDS011;35323;43.080;-81.378;2022-10-31T05:47:55;3.38;;;2.53;;
49444;SDS011;35323;43.080;-81.378;2022-10-31T05:50:24;7.40;;;3.00;;
49444;SDS011;35323;43.080;-81.378;2022-10-31T05:52:56;6.72;;;3.30;;
49444;SDS011;35323;43.080;-81.378;2022-10-31T05:55:25;7.43;;;3.20;;
49444;SDS011;35323;43.080;-81.378;2022-10-31T05:57:55;2.15;;;2.05;;
49444;SDS011;35323;43.080;-81.378;2022-10-31T06:00:23;3.17;;;2.50;;
49444;SDS011;35323;43.080;-81.378;2022-10-31T06:02:58;6.95;;;2.33;;
49444;SDS011;35323;43.080;-81.378;2022-10-31T06:05:26;5.20;;;2.47;;
49444;SDS011;35323;43.080;-81.378;2022-10-31T06:07:54;5.82;;;3.10;;
49444;SDS011;35323;43.080;-81.378;2022-10-31T06:10:21;3.70;;;2.92;;
49444;SDS011;35323;43.080;-81.378;2022-10-31T06:12:49;8.98;;;3.45;;
49444;SDS011;35323;43.080;-81.378;2022-10-31T06:15:17;3.60;;;2.90;;
49444;SDS011;35323;43.080;-81.378;2022-10-31T06:17:59;6.28;;;3.08;;
49444;SDS011;35323;43.080;-81.378;2022-10-31T06:20:28;3.28;;;2.95;;
49444;SDS011;35323;43.080;-81.378;2022-10-31T06:22:55;3.42;;;2.38;;
49444;SDS011;35323;43.080;-81.378;2022-10-31T06:25:23;5.78;;;2.67;;
49444;SDS011;35323;43.080;-81.378;2022-10-31T06:27:51;4.88;;;2.78;;
49444;SDS011;35323;43.080;-81.378;2022-10-31T06:30:20;4.35;;;3.63;;
49444;SDS011;35323;43.080;-81.378;2022-10-31T06:32:47;3.42;;;3.13;;
49444;SDS011;35323;43.080;-81.378;2022-10-31T06:35:16;4.50;;;2.63;;
49444;SDS011;35323;43.080;-81.378;2022-10-31T06:37:50;5.18;;;3.38;;
49444;SDS011;35323;43.080;-81.378;2022-10-31T06:40:18;9.63;;;3.03;;
49444;SDS011;35323;43.080;-81.378;2022-10-31T06:42:45;3.92;;;2.55;;
49444;SDS011;35323;43.080;-81.378;2022-10-31T06:45:13;2.90;;;2.65;;
49444;SDS011;35323;43.080;-81.378;2022-10-31T06:47:40;5.65;;;3.00;;
49444;SDS011;35323;43.080;-81.378;2022-10-31T06:50:27;3.33;;;2.55;;
49444;SDS011;35323;43.080;-81.378;2022-10-31T06:52:56;4.03;;;3.17;;
49444;SDS011;35323;43.080;-81.378;2022-10-31T06:55:24;4.05;;;2.70;;
49444;SDS011;35323;43.080;-81.378;2022-10-31T06:57:52;3.45;;;2.72;;
49444;SDS011;35323;43.080;-81.378;2022-10-31T07:00:26;3.58;;;2.60;;
49444;SDS011;35323;43.080;-81.378;2022-10-31T07:05:22;4.35;;;2.78;;
49444;SDS011;35323;43.080;-81.378;2022-10-31T07:07:56;4.00;;;2.60;;
49444;SDS011;35323;43.080;-81.378;2022-10-31T07:10:26;5.35;;;3.50;;
49444;SDS011;35323;43.080;-81.378;2022-10-31T07:12:57;5.88;;;2.85;;
49444;SDS011;35323;43.080;-81.378;2022-10-31T07:15:27;3.95;;;2.28;;
49444;SDS011;35323;43.080;-81.378;2022-10-31T07:17:59;5.88;;;2.95;;
49444;SDS011;35323;43.080;-81.378;2022-10-31T07:20:27;5.15;;;2.55;;
49444;SDS011;35323;43.080;-81.378;2022-10-31T07:22:55;3.85;;;2.70;;
49444;SDS011;35323;43.080;-81.378;2022-10-31T07:25:23;4.45;;;2.83;;
49444;SDS011;35323;43.080;-81.378;2022-10-31T07:27:51;5.38;;;2.65;;
49444;SDS011;35323;43.080;-81.378;2022-10-31T07:30:18;5.18;;;2.67;;
49444;SDS011;35323;43.080;-81.378;2022-10-31T07:32:47;3.60;;;2.60;;
49444;SDS011;35323;43.080;-81.378;2022-10-31T07:35:16;3.38;;;2.65;;
49444;SDS011;35323;43.080;-81.378;2022-10-31T07:37:44;3.35;;;2.88;;
49444;SDS011;35323;43.080;-81.378;2022-10-31T07:40:12;4.30;;;2.55;;
49444;SDS011;35323;43.080;-81.378;2022-10-31T07:42:43;5.93;;;3.50;;
49444;SDS011;35323;43.080;-81.378;2022-10-31T07:45:12;3.40;;;2.22;;
49444;SDS011;35323;43.080;-81.378;2022-10-31T07:47:43;3.80;;;3.08;;
49444;SDS011;35323;43.080;-81.378;2022-10-31T07:50:12;4.30;;;2.78;;
49444;SDS011;35323;43.080;-81.378;2022-10-31T07:52:40;4.68;;;3.00;;
49444;SDS011;35323;43.080;-81.378;2022-10-31T07:55:07;5.13;;;3.05;;
49444;SDS011;35323;43.080;-81.378;2022-10-31T07:57:35;4.55;;;3.35;;
49444;SDS011;35323;43.080;-81.378;2022-10-31T08:00:06;4.32;;;2.70;;
49444;SDS011;35323;43.080;-81.378;2022-10-31T08:02:34;3.35;;;3.00;;
49444;SDS011;35323;43.080;-81.378;2022-10-31T08:05:02;3.92;;;2.75;;
49444;SDS011;35323;43.080;-81.378;2022-10-31T08:07:29;4.53;;;2.70;;
49444;SDS011;35323;43.080;-81.378;2022-10-31T08:09:57;4.07;;;2.67;;
49444;SDS011;35323;43.080;-81.378;2022-10-31T08:12:24;4.65;;;2.92;;
49444;SDS011;35323;43.080;-81.378;2022-10-31T08:14:52;3.83;;;2.95;;
49444;SDS011;35323;43.080;-81.378;2022-10-31T08:17:19;5.50;;;3.05;;
49444;SDS011;35323;43.080;-81.378;2022-10-31T08:19:47;5.05;;;2.53;;
49444;SDS011;35323;43.080;-81.378;2022-10-31T08:22:14;3.92;;;2.38;;
49444;SDS011;35323;43.080;-81.378;2022-10-31T08:24:42;3.30;;;3.00;;
49444;SDS011;35323;43.080;-81.378;2022-10-31T08:27:09;3.97;;;3.67;;
49444;SDS011;35323;43.080;-81.378;2022-10-31T08:29:36;3.33;;;2.67;;
49444;SDS011;35323;43.080;-81.378;2022-10-31T08:32:04;3.67;;;2.80;;
49444;SDS011;35323;43.080;-81.378;2022-10-31T08:34:31;2.50;;;1.88;;
49444;SDS011;35323;43.080;-81.378;2022-10-31T08:36:59;2.55;;;2.08;;
49444;SDS011;35323;43.080;-81.378;2022-10-31T08:39:26;4.70;;;2.35;;
49444;SDS011;35323;43.080;-81.378;2022-10-31T08:41:54;3.50;;;2.70;;
49444;SDS011;35323;43.080;-81.378;2022-10-31T08:44:21;3.45;;;1.90;;
49444;SDS011;35323;43.080;-81.378;2022-10-31T08:46:49;2.05;;;1.73;;
49444;SDS011;35323;43.080;-81.378;2022-10-31T08:49:17;2.88;;;2.67;;
49444;SDS011;35323;43.080;-81.378;2022-10-31T08:51:47;1.52;;;1.25;;
49444;SDS011;35323;43.080;-81.378;2022-10-31T08:54:14;5.53;;;2.80;;
49444;SDS011;35323;43.080;-81.378;2022-10-31T08:56:42;2.78;;;1.73;;
49444;SDS011;35323;43.080;-81.378;2022-10-31T08:59:10;2.85;;;1.95;;
49444;SDS011;35323;43.080;-81.378;2022-10-31T09:01:37;2.80;;;2.17;;
49444;SDS011;35323;43.080;-81.378;2022-10-31T09:04:05;7.18;;;2.80;;
49444;SDS011;35323;43.080;-81.378;2022-10-31T09:06:32;3.63;;;2.50;;
49444;SDS011;35323;43.080;-81.378;2022-10-31T09:09:00;2.25;;;1.90;;
49444;SDS011;35323;43.080;-81.378;2022-10-31T09:11:29;4.30;;;3.25;;
49444;SDS011;35323;43.080;-81.378;2022-10-31T09:13:57;2.95;;;2.25;;
49444;SDS011;35323;43.080;-81.378;2022-10-31T09:16:24;4.47;;;2.67;;
49444;SDS011;35323;43.080;-81.378;2022-10-31T09:18:52;3.97;;;2.33;;
49444;SDS011;35323;43.080;-81.378;2022-10-31T09:21:19;2.95;;;2.72;;
49444;SDS011;35323;43.080;-81.378;2022-10-31T09:23:46;5.35;;;2.65;;
49444;SDS011;35323;43.080;-81.378;2022-10-31T09:26:14;2.35;;;2.03;;
49444;SDS011;35323;43.080;-81.378;2022-10-31T09:28:41;2.83;;;2.58;;
49444;SDS011;35323;43.080;-81.378;2022-10-31T09:31:09;4.10;;;3.00;;
49444;SDS011;35323;43.080;-81.378;2022-10-31T09:33:36;7.07;;;3.15;;
49444;SDS011;35323;43.080;-81.378;2022-10-31T09:36:04;3.17;;;2.70;;
49444;SDS011;35323;43.080;-81.378;2022-10-31T09:38:32;6.28;;;3.17;;
49444;SDS011;35323;43.080;-81.378;2022-10-31T09:46:31;5.10;;;2.78;;
49444;SDS011;35323;43.080;-81.378;2022-10-31T09:51:31;4.82;;;2.90;;
49444;SDS011;35323;43.080;-81.378;2022-10-31T09:54:12;2.80;;;2.60;;
49444;SDS011;35323;43.080;-81.378;2022-10-31T09:56:40;6.35;;;2.63;;
49444;SDS011;35323;43.080;-81.378;2022-10-31T10:01:59;4.50;;;2.33;;
49444;SDS011;35323;43.080;-81.378;2022-10-31T10:06:56;5.53;;;3.30;;
49444;SDS011;35323;43.080;-81.378;2022-10-31T10:09:24;3.88;;;2.80;;
49444;SDS011;35323;43.080;-81.378;2022-10-31T10:11:55;2.75;;;2.05;;
49444;SDS011;35323;43.080;-81.378;2022-10-31T10:17:11;2.97;;;2.40;;
49444;SDS011;35323;43.080;-81.378;2022-10-31T10:24:59;4.90;;;3.08;;
49444;SDS011;35323;43.080;-81.378;2022-10-31T10:30:16;4.70;;;2.90;;
49444;SDS011;35323;43.080;-81.378;2022-10-31T10:32:48;4.13;;;2.63;;
49444;SDS011;35323;43.080;-81.378;2022-10-31T10:35:31;3.95;;;3.00;;
49444;SDS011;35323;43.080;-81.378;2022-10-31T10:38:15;7.22;;;3.35;;
49444;SDS011;35323;43.080;-81.378;2022-10-31T10:40:43;6.53;;;3.20;;
49444;SDS011;35323;43.080;-81.378;2022-10-31T10:43:22;6.25;;;3.17;;
49444;SDS011;35323;43.080;-81.378;2022-10-31T10:51:31;5.10;;;4.03;;
49444;SDS011;35323;43.080;-81.378;2022-10-31T10:54:43;3.65;;;2.83;;
49444;SDS011;35323;43.080;-81.378;2022-10-31T10:59:45;4.47;;;3.13;;
49444;SDS011;35323;43.080;-81.378;2022-10-31T11:02:31;8.30;;;3.40;;
49444;SDS011;35323;43.080;-81.378;2022-10-31T11:05:00;3.78;;;2.88;;
49444;SDS011;35323;43.080;-81.378;2022-10-31T11:07:40;4.38;;;3.20;;
49444;SDS011;35323;43.080;-81.378;2022-10-31T11:10:11;5.57;;;3.65;;
49444;SDS011;35323;43.080;-81.378;2022-10-31T11:12:44;5.22;;;2.70;;
49444;SDS011;35323;43.080;-81.378;2022-10-31T11:15:19;5.97;;;3.22;;
49444;SDS011;35323;43.080;-81.378;2022-10-31T11:17:51;4.78;;;3.53;;
49444;SDS011;35323;43.080;-81.378;2022-10-31T11:22:47;4.35;;;3.72;;
49444;SDS011;35323;43.080;-81.378;2022-10-31T11:25:22;4.57;;;2.90;;
49444;SDS011;35323;43.080;-81.378;2022-10-31T11:28:04;6.63;;;4.50;;
49444;SDS011;35323;43.080;-81.378;2022-10-31T11:30:44;5.40;;;3.75;;
49444;SDS011;35323;43.080;-81.378;2022-10-31T11:33:17;5.57;;;4.20;;
49444;SDS011;35323;43.080;-81.378;2022-10-31T11:35:46;5.72;;;4.50;;
49444;SDS011;35323;43.080;-81.378;2022-10-31T11:38:21;7.63;;;3.85;;
49444;SDS011;35323;43.080;-81.378;2022-10-31T11:40:57;6.47;;;4.35;;
49444;SDS011;35323;43.080;-81.378;2022-10-31T11:43:25;7.43;;;4.57;;
49444;SDS011;35323;43.080;-81.378;2022-10-31T11:45:53;7.03;;;3.85;;
49444;SDS011;35323;43.080;-81.378;2022-10-31T11:48:22;6.90;;;3.75;;
49444;SDS011;35323;43.080;-81.378;2022-10-31T11:50:51;7.28;;;4.68;;
49444;SDS011;35323;43.080;-81.378;2022-10-31T11:53:26;10.15;;;4.57;;
49444;SDS011;35323;43.080;-81.378;2022-10-31T11:56:04;6.28;;;4.20;;
49444;SDS011;35323;43.080;-81.378;2022-10-31T11:58:32;8.88;;;4.57;;
49444;SDS011;35323;43.080;-81.378;2022-10-31T12:01:00;5.38;;;4.50;;
49444;SDS011;35323;43.080;-81.378;2022-10-31T12:08:42;8.88;;;5.50;;
49444;SDS011;35323;43.080;-81.378;2022-10-31T12:16:10;8.63;;;5.63;;
49444;SDS011;35323;43.080;-81.378;2022-10-31T12:19:23;7.77;;;4.37;;
49444;SDS011;35323;43.080;-81.378;2022-10-31T12:22:05;9.57;;;4.25;;
49444;SDS011;35323;43.080;-81.378;2022-10-31T12:30:02;7.35;;;5.03;;
49444;SDS011;35323;43.080;-81.378;2022-10-31T12:32:59;10.43;;;5.28;;
49444;SDS011;35323;43.080;-81.378;2022-10-31T12:35:44;11.20;;;4.30;;
49444;SDS011;35323;43.080;-81.378;2022-10-31T12:44:00;8.10;;;4.30;;
49444;SDS011;35323;43.080;-81.378;2022-10-31T12:49:05;8.50;;;5.35;;
49444;SDS011;35323;43.080;-81.378;2022-10-31T12:51:45;6.22;;;4.60;;
49444;SDS011;35323;43.080;-81.378;2022-10-31T12:57:02;6.88;;;4.68;;
49444;SDS011;35323;43.080;-81.378;2022-10-31T12:59:35;8.52;;;4.25;;
49444;SDS011;35323;43.080;-81.378;2022-10-31T13:02:12;9.00;;;4.32;;
49444;SDS011;35323;43.080;-81.378;2022-10-31T13:07:25;4.50;;;3.83;;
49444;SDS011;35323;43.080;-81.378;2022-10-31T13:10:05;7.55;;;4.85;;
49444;SDS011;35323;43.080;-81.378;2022-10-31T13:12:35;8.52;;;5.28;;
49444;SDS011;35323;43.080;-81.378;2022-10-31T13:15:04;5.45;;;4.70;;
49444;SDS011;35323;43.080;-81.378;2022-10-31T13:17:39;7.85;;;5.32;;
49444;SDS011;35323;43.080;-81.378;2022-10-31T13:22:47;4.95;;;4.10;;
49444;SDS011;35323;43.080;-81.378;2022-10-31T13:25:16;5.25;;;4.20;;
49444;SDS011;35323;43.080;-81.378;2022-10-31T13:27:48;5.88;;;4.05;;
49444;SDS011;35323;43.080;-81.378;2022-10-31T13:30:21;11.95;;;4.88;;
49444;SDS011;35323;43.080;-81.378;2022-10-31T13:32:58;7.93;;;4.32;;
49444;SDS011;35323;43.080;-81.378;2022-10-31T13:38:09;9.05;;;5.20;;
49444;SDS011;35323;43.080;-81.378;2022-10-31T13:40:54;5.85;;;4.40;;
49444;SDS011;35323;43.080;-81.378;2022-10-31T13:43:32;7.20;;;3.88;;
49444;SDS011;35323;43.080;-81.378;2022-10-31T13:46:20;6.40;;;3.85;;
49444;SDS011;35323;43.080;-81.378;2022-10-31T13:48:48;6.53;;;4.57;;
49444;SDS011;35323;43.080;-81.378;2022-10-31T13:51:24;7.82;;;4.63;;
49444;SDS011;35323;43.080;-81.378;2022-10-31T13:56:21;9.57;;;5.03;;
49444;SDS011;35323;43.080;-81.378;2022-10-31T13:58:57;7.03;;;4.40;;
49444;SDS011;35323;43.080;-81.378;2022-10-31T14:01:25;6.90;;;4.63;;
49444;SDS011;35323;43.080;-81.378;2022-10-31T14:06:57;6.40;;;4.93;;
49444;SDS011;35323;43.080;-81.378;2022-10-31T14:11:52;6.82;;;4.85;;
49444;SDS011;35323;43.080;-81.378;2022-10-31T14:14:20;5.43;;;4.22;;
49444;SDS011;35323;43.080;-81.378;2022-10-31T14:16:53;5.10;;;3.38;;
49444;SDS011;35323;43.080;-81.378;2022-10-31T14:19:21;4.60;;;3.75;;
49444;SDS011;35323;43.080;-81.378;2022-10-31T14:21:49;7.43;;;4.05;;
49444;SDS011;35323;43.080;-81.378;2022-10-31T14:29:45;4.03;;;3.30;;
49444;SDS011;35323;43.080;-81.378;2022-10-31T14:32:20;5.47;;;3.53;;
49444;SDS011;35323;43.080;-81.378;2022-10-31T14:40:13;4.35;;;3.15;;
49444;SDS011;35323;43.080;-81.378;2022-10-31T14:42:51;4.13;;;2.90;;
49444;SDS011;35323;43.080;-81.378;2022-10-31T14:45:31;3.70;;;2.42;;
49444;SDS011;35323;43.080;-81.378;2022-10-31T14:53:04;2.50;;;1.83;;
49444;SDS011;35323;43.080;-81.378;2022-10-31T14:55:32;3.92;;;2.45;;
49444;SDS011;35323;43.080;-81.378;2022-10-31T14:58:01;2.60;;;2.40;;
49444;SDS011;35323;43.080;-81.378;2022-10-31T15:00:30;3.13;;;2.80;;
49444;SDS011;35323;43.080;-81.378;2022-10-31T15:05:40;3.22;;;2.53;;
49444;SDS011;35323;43.080;-81.378;2022-10-31T15:08:12;4.93;;;3.50;;
49444;SDS011;35323;43.080;-81.378;2022-10-31T15:10:44;3.08;;;2.03;;
49444;SDS011;35323;43.080;-81.378;2022-10-31T15:13:18;3.63;;;3.00;;
49444;SDS011;35323;43.080;-81.378;2022-10-31T15:15:46;3.38;;;2.97;;
49444;SDS011;35323;43.080;-81.378;2022-10-31T15:18:19;4.43;;;3.50;;
49444;SDS011;35323;43.080;-81.378;2022-10-31T15:20:47;3.08;;;2.60;;
49444;SDS011;35323;43.080;-81.378;2022-10-31T15:23:25;3.83;;;2.58;;
49444;SDS011;35323;43.080;-81.378;2022-10-31T15:26:05;2.85;;;2.40;;
49444;SDS011;35323;43.080;-81.378;2022-10-31T15:28:33;4.45;;;2.67;;
49444;SDS011;35323;43.080;-81.378;2022-10-31T15:31:00;4.53;;;3.65;;
49444;SDS011;35323;43.080;-81.378;2022-10-31T15:33:30;3.00;;;2.28;;
49444;SDS011;35323;43.080;-81.378;2022-10-31T15:36:04;4.30;;;3.05;;
49444;SDS011;35323;43.080;-81.378;2022-10-31T15:38:32;11.20;;;5.47;;
49444;SDS011;35323;43.080;-81.378;2022-10-31T15:41:03;6.32;;;2.75;;
49444;SDS011;35323;43.080;-81.378;2022-10-31T15:43:35;5.87;;;3.60;;
49444;SDS011;35323;43.080;-81.378;2022-10-31T15:46:04;5.93;;;3.90;;
49444;SDS011;35323;43.080;-81.378;2022-10-31T15:48:33;6.43;;;4.03;;
49444;SDS011;35323;43.080;-81.378;2022-10-31T15:51:01;5.70;;;3.65;;
49444;SDS011;35323;43.080;-81.378;2022-10-31T15:53:36;7.50;;;3.80;;
49444;SDS011;35323;43.080;-81.378;2022-10-31T15:56:11;7.53;;;4.63;;
49444;SDS011;35323;43.080;-81.378;2022-10-31T15:58:44;5.90;;;5.00;;
49444;SDS011;35323;43.080;-81.378;2022-10-31T16:01:28;3.75;;;3.25;;
49444;SDS011;35323;43.080;-81.378;2022-10-31T16:04:04;8.13;;;3.75;;
49444;SDS011;35323;43.080;-81.378;2022-10-31T16:06:32;4.18;;;3.80;;
49444;SDS011;35323;43.080;-81.378;2022-10-31T16:09:00;4.85;;;4.00;;
49444;SDS011;35323;43.080;-81.378;2022-10-31T16:11:31;5.63;;;4.90;;
49444;SDS011;35323;43.080;-81.378;2022-10-31T16:16:33;5.15;;;4.57;;
49444;SDS011;35323;43.080;-81.378;2022-10-31T16:19:03;6.88;;;3.67;;
49444;SDS011;35323;43.080;-81.378;2022-10-31T16:21:35;6.57;;;4.57;;
49444;SDS011;35323;43.080;-81.378;2022-10-31T16:27:04;4.97;;;4.07;;
49444;SDS011;35323;43.080;-81.378;2022-10-31T16:29:43;5.30;;;3.50;;
49444;SDS011;35323;43.080;-81.378;2022-10-31T16:40:06;4.32;;;3.80;;
49444;SDS011;35323;43.080;-81.378;2022-10-31T16:42:33;4.80;;;3.78;;
49444;SDS011;35323;43.080;-81.378;2022-10-31T16:45:01;3.95;;;3.35;;
49444;SDS011;35323;43.080;-81.378;2022-10-31T16:47:29;5.85;;;3.42;;
49444;SDS011;35323;43.080;-81.378;2022-10-31T16:49:56;8.27;;;4.22;;
49444;SDS011;35323;43.080;-81.378;2022-10-31T16:52:26;4.07;;;3.25;;
49444;SDS011;35323;43.080;-81.378;2022-10-31T16:55:11;5.30;;;3.38;;
49444;SDS011;35323;43.080;-81.378;2022-10-31T16:57:41;5.13;;;4.15;;